createdAt,value
2022-10-06T00:00:09.357Z,12.8
2022-10-06T00:04:16.440Z,12.8
2022-10-06T00:06:19.944Z,12.9
2022-10-06T00:08:23.460Z,12.8
2022-10-06T00:10:26.977Z,12.8
2022-10-06T00:12:33.615Z,12.5
2022-10-06T00:14:37.134Z,12.3
2022-10-06T00:16:40.618Z,12.8
2022-10-06T00:18:44.181Z,12.8
2022-10-06T00:20:47.709Z,12.7
2022-10-06T00:24:54.769Z,12.4
2022-10-06T00:29:04.868Z,12.7
2022-10-06T00:31:08.556Z,12.4
2022-10-06T00:33:30.537Z,12.2
2022-10-06T00:35:34.085Z,12.6
2022-10-06T00:37:37.623Z,12.3
2022-10-06T00:39:44.240Z,12.4
2022-10-06T00:41:47.758Z,12.1
2022-10-06T00:43:51.342Z,12.5
2022-10-06T00:45:54.928Z,12.2
2022-10-06T00:47:58.410Z,12.4
2022-10-06T00:50:01.962Z,12.2
2022-10-06T00:52:05.506Z,12.2
2022-10-06T00:54:12.088Z,12.2
2022-10-06T00:56:15.605Z,12.6
2022-10-06T00:58:19.176Z,12.5
2022-10-06T01:00:22.747Z,12.3
2022-10-06T01:02:26.339Z,12.5
2022-10-06T01:06:33.353Z,12.5
2022-10-06T01:08:39.981Z,12.2
2022-10-06T01:10:43.518Z,12.5
2022-10-06T01:12:47.025Z,12.3
2022-10-06T01:14:50.609Z,12.4
2022-10-06T01:16:54.189Z,12.5
2022-10-06T01:18:57.736Z,12.2
2022-10-06T01:21:01.250Z,12.3
2022-10-06T01:23:07.888Z,12.2
2022-10-06T01:27:15.014Z,12.4
2022-10-06T01:30:21.865Z,12.2
2022-10-06T01:32:25.453Z,12.2
2022-10-06T01:36:35.616Z,12.3
2022-10-06T01:38:39.181Z,12.1
2022-10-06T01:40:42.745Z,12.2
2022-10-06T01:42:46.291Z,12.3
2022-10-06T01:46:53.407Z,11.9
2022-10-06T01:48:56.954Z,12
2022-10-06T01:51:03.603Z,11.9
2022-10-06T01:53:07.159Z,12.2
2022-10-06T01:55:10.703Z,12
2022-10-06T01:57:14.288Z,12
2022-10-06T01:59:17.804Z,11.8
2022-10-06T02:01:21.401Z,11.9
2022-10-06T02:03:24.934Z,11.9
2022-10-06T02:05:31.539Z,11.7
2022-10-06T02:07:35.109Z,11.7
2022-10-06T02:09:38.638Z,11.7
2022-10-06T02:11:42.177Z,11.7
2022-10-06T02:13:45.734Z,11.7
2022-10-06T02:15:49.382Z,11.6
2022-10-06T02:17:52.809Z,11.8
2022-10-06T02:19:59.449Z,11.8
2022-10-06T02:22:03.023Z,11.6
2022-10-06T02:24:06.582Z,11.6
2022-10-06T02:25:09.881Z,11.6
2022-10-06T02:27:13.438Z,11.5
2022-10-06T02:33:27.176Z,11.6
2022-10-06T02:35:30.743Z,11.5
2022-10-06T02:37:34.272Z,11.6
2022-10-06T02:39:37.860Z,11.4
2022-10-06T02:41:41.402Z,11.5
2022-10-06T02:43:44.946Z,11.3
2022-10-06T02:45:48.496Z,11.2
2022-10-06T02:47:55.126Z,11.3
2022-10-06T02:49:58.669Z,11.2
2022-10-06T02:52:02.236Z,11.4
2022-10-06T02:54:05.810Z,11.1
2022-10-06T02:56:09.350Z,11.3
2022-10-06T02:58:12.898Z,11.1
2022-10-06T03:00:16.487Z,11.2
2022-10-06T03:02:23.284Z,11.1
2022-10-06T03:04:26.661Z,11.1
2022-10-06T03:06:30.263Z,11.3
2022-10-06T03:08:33.826Z,11.2
2022-10-06T03:10:37.373Z,11.2
2022-10-06T03:12:40.959Z,11.2
2022-10-06T03:14:44.549Z,11
2022-10-06T03:16:51.188Z,10.9
2022-10-06T03:18:54.746Z,10.9
2022-10-06T03:20:58.318Z,11.1
2022-10-06T03:24:05.200Z,11
2022-10-06T03:26:08.741Z,10.8
2022-10-06T03:28:12.381Z,10.9
2022-10-06T03:30:18.943Z,10.9
2022-10-06T03:32:22.503Z,10.7
2022-10-06T03:36:31.202Z,10.7
2022-10-06T03:38:34.726Z,10.7
2022-10-06T03:40:38.300Z,10.8
2022-10-06T03:42:41.878Z,10.8
2022-10-06T03:44:48.509Z,10.9
2022-10-06T03:46:52.142Z,10.7
2022-10-06T03:48:55.656Z,10.9
2022-10-06T03:50:59.233Z,10.8
2022-10-06T03:53:02.809Z,10.7
2022-10-06T03:55:06.395Z,10.9
2022-10-06T03:57:09.969Z,10.7
2022-10-06T03:59:16.623Z,10.8
2022-10-06T04:01:25.759Z,10.8
2022-10-06T04:03:23.799Z,10.7
2022-10-06T04:05:27.348Z,10.8
2022-10-06T04:07:30.925Z,10.7
2022-10-06T04:09:34.555Z,10.7
2022-10-06T04:11:38.078Z,10.6
2022-10-06T04:15:48.356Z,10.7
2022-10-06T04:17:51.900Z,10.5
2022-10-06T04:20:16.265Z,10.7
2022-10-06T04:22:19.835Z,10.6
2022-10-06T04:26:30.070Z,10.7
2022-10-06T04:28:34.386Z,10.7
2022-10-06T04:30:37.193Z,10.5
2022-10-06T04:32:40.800Z,10.6
2022-10-06T04:34:44.366Z,10.5
2022-10-06T04:38:51.503Z,10.6
2022-10-06T04:43:01.760Z,10.5
2022-10-06T04:45:05.327Z,10.5
2022-10-06T04:47:08.913Z,10.5
2022-10-06T04:49:18.527Z,10.5
2022-10-06T04:51:16.027Z,10.5
2022-10-06T04:53:19.656Z,10.5
2022-10-06T04:55:26.270Z,10.6
2022-10-06T04:57:29.895Z,10.6
2022-10-06T04:59:33.463Z,10.5
2022-10-06T05:01:37.022Z,10.4
2022-10-06T05:03:40.629Z,10.6
2022-10-06T05:05:44.212Z,10.6
2022-10-06T05:07:47.805Z,10.4
2022-10-06T05:09:54.442Z,10.4
2022-10-06T05:14:01.632Z,10.5
2022-10-06T05:15:04.959Z,10.5
2022-10-06T05:17:08.527Z,10.5
2022-10-06T05:19:12.164Z,10.5
2022-10-06T05:21:15.689Z,10.4
2022-10-06T05:23:22.360Z,10.4
2022-10-06T05:25:25.959Z,10.4
2022-10-06T05:27:29.540Z,10.5
2022-10-06T05:29:33.139Z,10.3
2022-10-06T05:31:36.777Z,10.3
2022-10-06T05:33:40.311Z,10.3
2022-10-06T05:35:44.023Z,10.3
2022-10-06T05:37:50.533Z,10.3
2022-10-06T05:39:54.129Z,10.3
2022-10-06T05:41:57.709Z,10.3
2022-10-06T05:44:01.301Z,10.3
2022-10-06T05:46:04.962Z,10.3
2022-10-06T05:48:08.489Z,10.3
2022-10-06T05:50:12.087Z,10.2
2022-10-06T05:52:18.742Z,10.2
2022-10-06T05:54:22.321Z,10.2
2022-10-06T05:58:29.957Z,10.2
2022-10-06T06:00:33.154Z,10.2
2022-10-06T06:02:36.776Z,10.2
2022-10-06T06:04:40.295Z,10.1
2022-10-06T06:06:46.973Z,10.1
2022-10-06T06:10:54.152Z,10.1
2022-10-06T06:14:01.110Z,10.1
2022-10-06T06:16:04.676Z,10.1
2022-10-06T06:20:14.887Z,10.2
2022-10-06T06:22:18.511Z,10.2
2022-10-06T06:24:22.078Z,10.3
2022-10-06T06:26:25.684Z,10.3
2022-10-06T06:28:29.618Z,10.4
2022-10-06T06:30:32.848Z,10.4
2022-10-06T06:32:36.418Z,10.5
2022-10-06T06:34:43.074Z,10.6
2022-10-06T06:36:46.647Z,10.6
2022-10-06T06:38:50.237Z,10.7
2022-10-06T06:40:53.830Z,10.8
2022-10-06T06:42:57.461Z,10.8
2022-10-06T06:45:01.007Z,10.9
2022-10-06T06:49:12.219Z,11.1
2022-10-06T06:51:15.701Z,11.1
2022-10-06T06:57:26.490Z,11.4
2022-10-06T07:01:33.729Z,11.5
2022-10-06T07:03:57.002Z,11.6
2022-10-06T07:05:43.900Z,11.6
2022-10-06T07:07:47.494Z,11.7
2022-10-06T07:08:50.790Z,11.7
2022-10-06T07:10:54.393Z,11.7
2022-10-06T07:12:57.993Z,11.8
2022-10-06T07:15:01.579Z,12
2022-10-06T07:17:08.222Z,12
2022-10-06T07:19:11.820Z,12.4
2022-10-06T07:21:15.401Z,14.8
2022-10-06T07:23:19.008Z,16.4
2022-10-06T07:25:25.705Z,17.2
2022-10-06T07:27:26.128Z,17.6
2022-10-06T07:29:29.679Z,18
2022-10-06T07:31:36.376Z,18.7
2022-10-06T07:33:39.858Z,18.9
2022-10-06T07:35:43.424Z,18.6
2022-10-06T07:37:46.982Z,18.4
2022-10-06T07:39:50.494Z,18.8
2022-10-06T07:41:54.042Z,18.6
2022-10-06T07:46:04.253Z,19.3
2022-10-06T07:48:07.755Z,19.9
2022-10-06T07:50:11.272Z,20
2022-10-06T07:52:14.769Z,19.4
2022-10-06T07:54:18.296Z,17.3
2022-10-06T07:56:21.847Z,15.9
2022-10-06T07:58:25.356Z,14.8
2022-10-06T08:02:36.092Z,14.3
2022-10-06T08:07:00.955Z,14.6
2022-10-06T08:09:04.402Z,14.9
2022-10-06T08:13:14.522Z,16.9
2022-10-06T08:15:18.022Z,16.4
2022-10-06T08:17:21.515Z,15.8
2022-10-06T08:19:25.001Z,15.3
2022-10-06T08:21:28.534Z,15.8
2022-10-06T08:23:32.026Z,17.8
2022-10-06T08:25:35.509Z,17.4
2022-10-06T08:27:42.107Z,17.3
2022-10-06T08:29:45.705Z,18
2022-10-06T08:40:07.240Z,15.9
2022-10-06T08:42:10.392Z,15.7
2022-10-06T08:44:13.866Z,15.8
2022-10-06T08:46:18.849Z,15.8
2022-10-06T08:48:20.813Z,15.7
2022-10-06T08:50:24.511Z,15.4
2022-10-06T08:52:27.814Z,15.3
2022-10-06T08:54:31.285Z,15.3
2022-10-06T08:56:37.856Z,15.4
2022-10-06T08:58:41.334Z,15.5
2022-10-06T09:00:44.824Z,15.7
2022-10-06T09:03:51.634Z,15.9
2022-10-06T09:10:05.120Z,15.9
2022-10-06T09:12:08.577Z,15.8
2022-10-06T09:14:12.070Z,15.8
2022-10-06T09:16:15.542Z,16.1
2022-10-06T09:47:15.210Z,16.6
2022-10-06T09:47:15.225Z,16.7
2022-10-06T09:57:35.160Z,16.9
2022-10-06T09:58:38.310Z,17.1
2022-10-06T10:00:41.714Z,17.1
2022-10-06T10:04:51.379Z,17
2022-10-06T10:06:54.623Z,17
2022-10-06T10:08:57.957Z,16.8
2022-10-06T10:11:01.185Z,16.7
2022-10-06T10:13:04.455Z,17.1
2022-10-06T10:15:07.749Z,17.2
2022-10-06T10:17:11.023Z,17.6
2022-10-06T10:21:20.538Z,17.3
2022-10-06T10:23:28.562Z,17
2022-10-06T10:25:27.025Z,16.9
2022-10-06T10:27:30.410Z,16.3
2022-10-06T10:29:33.532Z,16.5
2022-10-06T10:33:43.277Z,16.9
2022-10-06T10:35:46.242Z,17
2022-10-06T10:37:49.487Z,17.1
2022-10-06T10:39:52.726Z,17.1
2022-10-06T10:44:03.339Z,16.5
2022-10-06T10:46:02.426Z,16.6
2022-10-06T10:48:05.649Z,17
2022-10-06T10:50:11.873Z,17.1
2022-10-06T10:52:15.104Z,17.1
2022-10-06T10:54:18.320Z,17.4
2022-10-06T10:55:21.444Z,17
2022-10-06T10:57:24.681Z,16.7
2022-10-06T10:59:27.875Z,17
2022-10-06T11:01:31.150Z,17.2
2022-10-06T11:03:37.368Z,17.4
2022-10-06T11:05:40.538Z,17.3
2022-10-06T11:07:43.725Z,17.3
2022-10-06T11:09:46.898Z,17.5
2022-10-06T11:11:52.427Z,17.6
2022-10-06T11:13:53.446Z,17.5
2022-10-06T11:15:56.493Z,17.5
2022-10-06T11:18:02.662Z,18.2
2022-10-06T11:20:05.837Z,18.3
2022-10-06T11:22:09.011Z,18.2
2022-10-06T11:24:12.184Z,18.1
2022-10-06T11:26:15.358Z,17.8
2022-10-06T11:28:18.508Z,18
2022-10-06T11:30:21.617Z,18.4
2022-10-06T11:32:27.794Z,18.4
2022-10-06T11:34:30.910Z,18.5
2022-10-06T11:38:37.101Z,18.7
2022-10-06T11:40:40.215Z,19.2
2022-10-06T11:42:43.307Z,19.1
2022-10-06T11:44:46.401Z,19.1
2022-10-06T11:46:52.517Z,19.1
2022-10-06T11:48:55.581Z,18.8
2022-10-06T11:50:58.666Z,18.2
2022-10-06T11:53:22.438Z,18
2022-10-06T11:55:25.552Z,18.1
2022-10-06T11:57:31.290Z,18.2
2022-10-06T11:59:34.957Z,18.4
2022-10-06T12:01:37.998Z,18.5
2022-10-06T12:03:41.083Z,18.2
2022-10-06T12:05:56.509Z,18
2022-10-06T12:07:47.372Z,18.2
2022-10-06T12:09:52.718Z,18.1
2022-10-06T12:11:53.747Z,18
2022-10-06T12:16:00.042Z,17.7
2022-10-06T12:17:09.438Z,17.7
2022-10-06T12:18:06.356Z,17.7
2022-10-06T12:20:09.618Z,17.5
2022-10-06T12:22:12.798Z,17.5
2022-10-06T12:26:19.461Z,17.7
2022-10-06T12:28:25.946Z,17.5
2022-10-06T12:30:29.226Z,17.5
2022-10-06T12:32:32.542Z,17.7
2022-10-06T12:34:35.910Z,17.6
2022-10-06T12:36:42.246Z,17.6
2022-10-06T12:38:42.564Z,17.9
2022-10-06T12:40:45.833Z,18
2022-10-06T12:42:52.349Z,18.1
2022-10-06T12:46:59.103Z,18
2022-10-06T12:48:02.370Z,18
2022-10-06T12:50:05.731Z,17.8
2022-10-06T12:52:09.102Z,17.7
2022-10-06T12:54:12.436Z,17.8
2022-10-06T12:56:19.124Z,17.2
2022-10-06T12:58:22.321Z,17.3
2022-10-06T13:02:28.971Z,17.5
2022-10-06T13:08:39.143Z,17.3
2022-10-06T13:10:45.673Z,17
2022-10-06T13:12:49.068Z,17.2
2022-10-06T13:14:52.507Z,17.5
2022-10-06T13:18:59.294Z,17.4
2022-10-06T13:21:02.677Z,17.2
2022-10-06T13:23:10.218Z,17.1
2022-10-06T13:25:12.536Z,16.7
2022-10-06T13:27:15.946Z,16.8
2022-10-06T13:29:19.353Z,17
2022-10-06T13:31:22.778Z,16.8
2022-10-06T13:33:26.101Z,16.6
2022-10-06T13:35:29.515Z,16.8
2022-10-06T13:39:39.471Z,17.3
2022-10-06T13:44:49.566Z,17.1
2022-10-06T13:46:52.893Z,17.1
2022-10-06T13:48:56.244Z,17.1
2022-10-06T13:53:06.068Z,17.3
2022-10-06T13:57:12.942Z,17.4
2022-10-06T13:59:16.318Z,17.6
2022-10-06T14:01:19.792Z,17.7
2022-10-06T14:03:23.306Z,17.6
2022-10-06T14:05:26.662Z,18.1
2022-10-06T14:07:33.135Z,17.8
2022-10-06T14:09:36.560Z,17.5
2022-10-06T14:11:43.400Z,17.4
2022-10-06T14:13:43.442Z,17.2
2022-10-06T14:15:46.926Z,17.3
2022-10-06T14:17:50.289Z,17.4
2022-10-06T14:19:53.706Z,17.5
2022-10-06T14:22:00.256Z,17.5
2022-10-06T14:26:07.112Z,17.1
2022-10-06T14:28:10.561Z,17.1
2022-10-06T14:30:13.966Z,17.1
2022-10-06T14:32:17.390Z,17.1
2022-10-06T14:34:20.788Z,17.1
2022-10-06T14:36:27.352Z,17.1
2022-10-06T14:38:30.751Z,17.1
2022-10-06T14:40:34.171Z,17
2022-10-06T14:43:40.882Z,17
2022-10-06T14:45:44.298Z,16.8
2022-10-06T14:47:47.753Z,16.6
2022-10-06T14:49:54.273Z,16.3
2022-10-06T14:51:57.716Z,16.4
2022-10-06T14:54:01.109Z,16.6
2022-10-06T14:56:04.572Z,16.5
2022-10-06T14:58:07.991Z,16.3
2022-10-06T15:00:11.466Z,16.2
2022-10-06T15:08:28.322Z,16.3
2022-10-06T15:10:31.725Z,16.4
2022-10-06T15:12:35.164Z,16.4
2022-10-06T15:14:38.629Z,16.4
2022-10-06T15:16:42.086Z,16.3
2022-10-06T15:18:48.614Z,16.3
2022-10-06T15:20:52.076Z,16.3
2022-10-06T15:22:55.533Z,16.3
2022-10-06T15:24:58.989Z,16.2
2022-10-06T15:27:02.449Z,16.2
2022-10-06T15:29:07.479Z,16.1
2022-10-06T15:31:10.963Z,16.1
2022-10-06T15:33:17.437Z,16.1
2022-10-06T15:35:20.887Z,16.1
2022-10-06T15:37:24.351Z,16.1
2022-10-06T15:39:48.328Z,16
2022-10-06T15:41:51.783Z,16
2022-10-06T15:43:55.246Z,16
2022-10-06T15:46:01.811Z,16
2022-10-06T15:48:05.288Z,16
2022-10-06T15:50:08.737Z,16
2022-10-06T15:56:19.151Z,15.8
2022-10-06T16:04:36.068Z,15.7
2022-10-06T16:06:39.557Z,15.8
2022-10-06T16:08:42.995Z,15.7
2022-10-06T16:14:56.559Z,15.7
2022-10-06T16:19:03.512Z,16.6
2022-10-06T16:23:10.538Z,16.2
2022-10-06T16:25:13.919Z,15.8
2022-10-06T16:27:17.398Z,15.8
2022-10-06T16:29:23.976Z,15.8
2022-10-06T16:31:27.570Z,15.7
2022-10-06T16:33:30.915Z,15.4
2022-10-06T16:34:34.198Z,15.2
2022-10-06T16:36:37.663Z,15.1
2022-10-06T16:38:41.130Z,14.9
2022-10-06T16:40:44.587Z,14.8
2022-10-06T16:42:51.182Z,14.7
2022-10-06T16:44:54.646Z,14.7
2022-10-06T16:46:58.163Z,14.6
2022-10-06T16:51:05.086Z,14.6
2022-10-06T17:01:25.627Z,14.3
2022-10-06T17:07:36.131Z,14
2022-10-06T17:09:46.937Z,13.9
2022-10-06T17:11:46.235Z,13.8
2022-10-06T17:13:49.736Z,13.8
2022-10-06T17:15:53.263Z,13.6
2022-10-06T17:17:56.756Z,13.5
2022-10-06T17:20:00.271Z,13.5
2022-10-06T17:22:03.782Z,13.5
2022-10-06T17:24:07.296Z,13.4
2022-10-06T17:26:13.904Z,13.4
2022-10-06T17:28:17.533Z,13.4
2022-10-06T17:30:20.945Z,13.3
2022-10-06T17:31:24.312Z,13.2
2022-10-06T17:33:27.731Z,13.2
2022-10-06T17:35:31.251Z,13.1
2022-10-06T17:37:34.773Z,13.1
2022-10-06T17:39:44.781Z,13.1
2022-10-06T17:41:44.991Z,13.1
2022-10-06T17:43:48.498Z,13.1
2022-10-06T17:47:55.500Z,13
2022-10-06T17:52:02.559Z,12.9
2022-10-06T18:02:23.551Z,12.5
2022-10-06T18:04:26.787Z,12.4
2022-10-06T18:06:30.303Z,12.3
2022-10-06T18:08:36.907Z,12.2
2022-10-06T18:10:40.440Z,12.1
2022-10-06T18:12:44.166Z,12
2022-10-06T18:14:47.450Z,11.9
2022-10-06T18:16:55.082Z,11.8
2022-10-06T18:18:54.529Z,11.7
2022-10-06T18:20:58.037Z,11.6
2022-10-06T18:23:04.687Z,11.4
2022-10-06T18:25:08.226Z,11.4
2022-10-06T18:27:11.752Z,11.4
2022-10-06T18:28:15.097Z,11.5
2022-10-06T18:40:39.404Z,11.4
2022-10-06T18:44:46.483Z,11
2022-10-06T18:46:50.043Z,10.9
2022-10-06T18:48:53.581Z,10.7
2022-10-06T18:51:00.210Z,10.7
2022-10-06T18:53:03.775Z,10.7
2022-10-06T18:55:07.332Z,10.8
2022-10-06T18:57:10.893Z,10.7
2022-10-06T18:59:14.488Z,10.8
2022-10-06T19:01:18.154Z,10.7
2022-10-06T19:03:21.605Z,10.7
2022-10-06T19:05:28.231Z,10.6
2022-10-06T19:07:31.820Z,10.7
2022-10-06T19:09:35.429Z,10.7
2022-10-06T19:11:38.957Z,10.7
2022-10-06T19:13:42.515Z,10.7
2022-10-06T19:15:46.079Z,10.7
2022-10-06T19:17:49.690Z,10.7
2022-10-06T19:19:56.312Z,10.6
2022-10-06T19:24:03.463Z,10.6
2022-10-06T19:26:27.829Z,10.6
2022-10-06T19:28:31.472Z,10.5
2022-10-06T19:30:35.055Z,10.5
2022-10-06T19:34:45.248Z,10.4
2022-10-06T19:36:48.785Z,10.4
2022-10-06T19:40:56.003Z,10.4
2022-10-06T19:42:59.583Z,10.2
2022-10-06T19:45:03.171Z,10.3
2022-10-06T19:47:09.842Z,10.2
2022-10-06T19:49:13.443Z,10.2
2022-10-06T19:51:17.022Z,10.3
2022-10-06T19:53:20.625Z,10.2
2022-10-06T19:55:24.230Z,10.3
2022-10-06T19:57:27.825Z,10.2
2022-10-06T19:59:31.419Z,10.2
2022-10-06T20:01:38.178Z,10.2
2022-10-06T20:03:41.740Z,10.1
2022-10-06T20:05:45.286Z,10.1
2022-10-06T20:07:48.910Z,10.1
2022-10-06T20:11:56.086Z,10.1
2022-10-06T20:13:59.703Z,10.1
2022-10-06T20:16:06.369Z,10.1
2022-10-06T20:18:09.966Z,10.1
2022-10-06T20:20:13.544Z,10
2022-10-06T20:21:16.897Z,9.8
2022-10-06T20:23:20.494Z,9.7
2022-10-06T20:25:24.083Z,9.7
2022-10-06T20:27:27.694Z,9.8
2022-10-06T20:29:34.367Z,9.9
2022-10-06T20:31:37.967Z,9.9
2022-10-06T20:33:41.558Z,9.8
2022-10-06T20:35:45.145Z,9.7
2022-10-06T20:37:48.738Z,9.8
2022-10-06T20:39:52.391Z,9.9
2022-10-06T20:41:55.982Z,10
2022-10-06T20:44:02.622Z,10.1
2022-10-06T20:46:06.252Z,10
2022-10-06T20:48:09.792Z,10
2022-10-06T20:50:13.403Z,10.1
2022-10-06T20:52:16.998Z,10
2022-10-06T20:54:20.612Z,9.9
2022-10-06T20:56:24.226Z,9.9
2022-10-06T20:58:30.921Z,10
2022-10-06T21:00:34.581Z,9.9
2022-10-06T21:02:38.137Z,9.9
2022-10-06T21:08:49.000Z,9.8
2022-10-06T21:15:02.844Z,9.7
2022-10-06T21:17:06.494Z,9.7
2022-10-06T21:18:09.793Z,9.7
2022-10-06T21:20:13.413Z,9.7
2022-10-06T21:22:17.024Z,9.8
2022-10-06T21:24:22.201Z,9.8
2022-10-06T21:26:28.832Z,9.7
2022-10-06T21:28:32.526Z,9.7
2022-10-06T21:30:36.042Z,9.7
2022-10-06T21:32:39.669Z,9.7
2022-10-06T21:34:43.282Z,9.7
2022-10-06T21:36:46.892Z,9.7
2022-10-06T21:38:50.491Z,9.6
2022-10-06T21:40:57.209Z,9.6
2022-10-06T21:43:00.793Z,9.6
2022-10-06T21:45:04.440Z,9.5
2022-10-06T21:47:08.125Z,9.5
2022-10-06T21:51:15.253Z,9.3
2022-10-06T21:53:18.885Z,9.2
2022-10-06T21:55:25.523Z,9.1
2022-10-06T22:11:57.500Z,8.9
2022-10-06T22:15:04.412Z,8.6
2022-10-06T22:17:08.085Z,8.7
2022-10-06T22:21:15.299Z,8.7
2022-10-06T22:23:21.934Z,8.7
2022-10-06T22:25:25.584Z,8.6
2022-10-06T22:27:29.164Z,8.6
2022-10-06T22:29:32.790Z,8.6
2022-10-06T22:31:36.480Z,8.5
2022-10-06T22:33:40.059Z,8.4
2022-10-06T22:37:50.312Z,8.5
2022-10-06T22:39:54.024Z,8.4
2022-10-06T22:41:57.581Z,8.5
2022-10-06T22:44:01.200Z,8.4
2022-10-06T22:46:04.842Z,8.4
2022-10-06T22:48:08.391Z,8.5
2022-10-06T22:50:12.005Z,8.5
2022-10-06T22:52:18.757Z,8.4
2022-10-06T22:54:22.321Z,8.4
2022-10-06T22:56:25.926Z,8.5
2022-10-06T22:58:29.567Z,8.7
2022-10-06T23:00:33.251Z,9
2022-10-06T23:02:36.794Z,9.2
2022-10-06T23:04:40.426Z,9.4
2022-10-06T23:06:47.142Z,9.5
2022-10-06T23:08:50.789Z,9.4
2022-10-06T23:10:54.403Z,9.5
2022-10-06T23:13:18.549Z,9.6
2022-10-06T23:15:22.130Z,9.6
2022-10-06T23:17:25.738Z,9.7
2022-10-06T23:19:32.453Z,9.7
2022-10-06T23:21:36.058Z,9.7
2022-10-06T23:23:39.712Z,9.7
2022-10-06T23:25:43.276Z,9.7
2022-10-06T23:27:47.416Z,9.8
2022-10-06T23:29:50.517Z,9.8
2022-10-06T23:34:00.835Z,9.8
2022-10-06T23:36:04.491Z,9.7
2022-10-06T23:38:10.556Z,9.7
2022-10-06T23:40:11.689Z,9.7
2022-10-06T23:42:15.312Z,9.7
2022-10-06T23:44:18.910Z,9.6
2022-10-06T23:46:22.595Z,9.6
2022-10-06T23:48:29.164Z,9.6
2022-10-06T23:50:32.783Z,9.5
2022-10-06T23:52:36.406Z,9.5
2022-10-06T23:54:40.002Z,9.4
2022-10-06T23:58:47.232Z,9.4
